Skip Navigation Links Skip Navigation Links

Current Weather

Buchanan Field, Concord, Calif.

For information only: do not use for flight planning or navigation.
Latest weather
Observation time Thursday, December 3, 2020 10:53 PM PST
Local time Thursday, December 3, 2020 11:45 PM PST
Flight conditions Visual Meteorological Conditions
Winds
Wind direction Southeast (130°)
Wind speed 5 mph
Visibility 6 mi.
Present weather haze
Sky condition
Ceiling unlimited
Sky clear
Temperature 47°F
Dewpoint 38°F
Altimeter 30.33 in.Hg
Derived measurements
Relative humidity 71%
Wind chill 45°F
Density altitude -1131 ft.
Sea-level pressure 30.28 in.Hg
Remarks
Fully automated report.
Automated weather observing station with precipitation discriminator.
METAR KCCR 040653Z AUTO 13004KT 6SM HZ CLR 08/03 A3033 RMK AO2 SLP255 T00830033

Settings

Location code

InnerDrive.Weather 4.0.6770.0 Release CLR 4.0.30319.42000
Copyright ©2018 Inner Drive Technology. All rights reserved. Portions Copyright ©1986-2018 David Braverman.

Find weather

Site navigation


Skip Navigation Links

Place info

Page info

PayPal - The safer, easier way to pay online!

Return home.

Copyright ©2020 Inner Drive Technology. Purveyors of fine, hand-crafted computer software. Page printed 2020-12-04T07:45:57 UTC.